Hauptseite
METAR-TAF:

METAR-TAF

Flughäfen :

Kingston, Jamaika

Flughafen Norman Manley International

Breite: 17-56N, Länge: 076-47W, Höhe: 3 m

Beobachtung

Neuester Wetterbericht von vor 27 Minuten, um 16:00 UTC
Wind 7 kt aus Südwest
Temperatur 30°C
Luftfeuchtigkeit 66%
Luftdruck 1016 hPa
Sichtweite 10 km oder mehr
Leicht bewölkt in der Höhe von 2400 ft

METAR: MKJP 181600Z 22007KT 9999 FEW024 30/23 Q1016

Zeit: 11:27 (16:27 UTC)

Prognose

Neuester Wetterbericht von vor 5 Stunden und 12 Minuten, um 11:15 UTC
Gültige Prognose vom 18 um 12 UTC bis 19 um 12 UTC
Wind 5 kt aus Nordwest
Sichtweite 10 km oder mehr
Leicht bewölkt in der Höhe von 2400 ft
Übergehend zu
vom 18 um 14 UTC bis 18 um 16 UTC
Wind 10 kt aus Südost
Leicht bewölkt in der Höhe von 2200 ft
Übergehend zu
vom 19 um 03 UTC bis 19 um 05 UTC
Wind 5 kt aus Nord

TAF: MKJP 181115Z 1812/1912 32005KT 9999 FEW024 BECMG 1814/1816 14010KT FEW022 BECMG 1903/1905 35005KT

Wetterbeobachtungen und Prognosen von mehr als 4000 Flughäfen (METAR und TAF Bericht).

Die verfügbaren Stationen werden durch gelbe und rote Markierungen auf der Karte dargestellt.

Führen Sie die Maus auf sie, um den Namen der Station zu sehen.

Darauf klicken, um die Beobachtung von Wetterbeobachtungen und Prognosen zu sehen.

Um die Karte zu ändern : klicken Sie auf den grünen Tasten mit einem schwarzen Kreuz Zum Vergrößern, auf den grünen Button mit einem Gedankenstrich zu verkleinern, oder auf die grünen Pfeile für benachbarte Karten.


METAR-TAF: